sensor_id;sensor_type;location;lat;lon;timestamp;temperature;humidity
25012;DHT22;13027;49.358;11.256;2022-08-19T00:00:12;19.80;99.90
25012;DHT22;13027;49.358;11.256;2022-08-19T00:02:40;19.70;99.90
25012;DHT22;13027;49.358;11.256;2022-08-19T00:05:05;19.60;99.90
25012;DHT22;13027;49.358;11.256;2022-08-19T00:07:31;19.50;99.90
25012;DHT22;13027;49.358;11.256;2022-08-19T00:09:57;19.40;99.90
25012;DHT22;13027;49.358;11.256;2022-08-19T00:12:22;19.50;99.90
25012;DHT22;13027;49.358;11.256;2022-08-19T00:14:48;19.60;99.90
25012;DHT22;13027;49.358;11.256;2022-08-19T00:17:13;19.50;99.90
25012;DHT22;13027;49.358;11.256;2022-08-19T00:19:39;19.60;99.90
25012;DHT22;13027;49.358;11.256;2022-08-19T00:22:06;19.70;99.90
25012;DHT22;13027;49.358;11.256;2022-08-19T00:24:33;19.70;99.90
25012;DHT22;13027;49.358;11.256;2022-08-19T00:27:00;19.80;99.90
25012;DHT22;13027;49.358;11.256;2022-08-19T00:29:27;19.70;99.90
25012;DHT22;13027;49.358;11.256;2022-08-19T00:31:52;19.70;99.90
25012;DHT22;13027;49.358;11.256;2022-08-19T00:34:20;19.70;99.90
25012;DHT22;13027;49.358;11.256;2022-08-19T00:36:46;19.80;99.90
25012;DHT22;13027;49.358;11.256;2022-08-19T00:39:12;19.90;99.90
25012;DHT22;13027;49.358;11.256;2022-08-19T00:41:39;19.90;99.90
25012;DHT22;13027;49.358;11.256;2022-08-19T00:44:06;19.80;99.90
25012;DHT22;13027;49.358;11.256;2022-08-19T00:46:33;19.90;99.90
25012;DHT22;13027;49.358;11.256;2022-08-19T00:49:01;19.90;99.90
25012;DHT22;13027;49.358;11.256;2022-08-19T00:51:28;19.90;99.90
25012;DHT22;13027;49.358;11.256;2022-08-19T00:53:55;19.80;99.90
25012;DHT22;13027;49.358;11.256;2022-08-19T00:56:22;19.80;99.90
25012;DHT22;13027;49.358;11.256;2022-08-19T00:58:48;19.80;99.90
25012;DHT22;13027;49.358;11.256;2022-08-19T01:01:14;19.70;99.90
25012;DHT22;13027;49.358;11.256;2022-08-19T01:03:40;19.80;99.90
25012;DHT22;13027;49.358;11.256;2022-08-19T01:06:06;19.70;99.90
25012;DHT22;13027;49.358;11.256;2022-08-19T01:08:31;19.70;99.90
25012;DHT22;13027;49.358;11.256;2022-08-19T01:10:58;19.80;99.90
25012;DHT22;13027;49.358;11.256;2022-08-19T01:13:25;19.70;99.90
25012;DHT22;13027;49.358;11.256;2022-08-19T01:15:52;19.80;99.90
25012;DHT22;13027;49.358;11.256;2022-08-19T01:18:20;19.90;99.90
25012;DHT22;13027;49.358;11.256;2022-08-19T01:20:46;19.80;99.90
25012;DHT22;13027;49.358;11.256;2022-08-19T01:23:12;19.90;99.90
25012;DHT22;13027;49.358;11.256;2022-08-19T01:28:07;20.00;99.90
25012;DHT22;13027;49.358;11.256;2022-08-19T01:30:33;19.90;99.90
25012;DHT22;13027;49.358;11.256;2022-08-19T01:32:59;20.00;99.90
25012;DHT22;13027;49.358;11.256;2022-08-19T01:35:26;19.90;99.90
25012;DHT22;13027;49.358;11.256;2022-08-19T01:37:53;19.90;99.90
25012;DHT22;13027;49.358;11.256;2022-08-19T01:40:20;19.90;99.90
25012;DHT22;13027;49.358;11.256;2022-08-19T01:42:47;19.80;99.90
25012;DHT22;13027;49.358;11.256;2022-08-19T01:45:13;19.80;99.90
25012;DHT22;13027;49.358;11.256;2022-08-19T01:47:39;19.90;99.90
25012;DHT22;13027;49.358;11.256;2022-08-19T01:50:06;19.90;99.90
25012;DHT22;13027;49.358;11.256;2022-08-19T01:52:32;19.90;99.90
25012;DHT22;13027;49.358;11.256;2022-08-19T01:54:59;19.90;99.90
25012;DHT22;13027;49.358;11.256;2022-08-19T01:57:25;19.90;99.90
25012;DHT22;13027;49.358;11.256;2022-08-19T01:59:51;20.00;99.90
25012;DHT22;13027;49.358;11.256;2022-08-19T02:02:16;19.90;99.90
25012;DHT22;13027;49.358;11.256;2022-08-19T02:04:42;19.90;99.90
25012;DHT22;13027;49.358;11.256;2022-08-19T02:07:08;19.80;99.90
25012;DHT22;13027;49.358;11.256;2022-08-19T02:09:34;19.80;99.90
25012;DHT22;13027;49.358;11.256;2022-08-19T02:11:59;19.80;99.90
25012;DHT22;13027;49.358;11.256;2022-08-19T02:14:25;19.80;99.90
25012;DHT22;13027;49.358;11.256;2022-08-19T02:16:51;19.90;99.90
25012;DHT22;13027;49.358;11.256;2022-08-19T02:19:16;19.90;99.90
25012;DHT22;13027;49.358;11.256;2022-08-19T02:21:42;19.90;99.90
25012;DHT22;13027;49.358;11.256;2022-08-19T02:24:09;19.80;99.90
25012;DHT22;13027;49.358;11.256;2022-08-19T02:26:34;19.70;99.90
25012;DHT22;13027;49.358;11.256;2022-08-19T02:29:00;19.70;99.90
25012;DHT22;13027;49.358;11.256;2022-08-19T02:31:26;19.70;99.90
25012;DHT22;13027;49.358;11.256;2022-08-19T02:33:53;19.80;99.90
25012;DHT22;13027;49.358;11.256;2022-08-19T02:36:19;19.70;99.90
25012;DHT22;13027;49.358;11.256;2022-08-19T02:38:45;19.70;99.90
25012;DHT22;13027;49.358;11.256;2022-08-19T02:41:15;19.60;99.90
25012;DHT22;13027;49.358;11.256;2022-08-19T02:43:40;19.60;99.90
25012;DHT22;13027;49.358;11.256;2022-08-19T02:46:23;19.60;99.90
25012;DHT22;13027;49.358;11.256;2022-08-19T02:48:49;19.70;99.90
25012;DHT22;13027;49.358;11.256;2022-08-19T02:51:19;19.80;99.90
25012;DHT22;13027;49.358;11.256;2022-08-19T02:53:46;19.70;99.90
25012;DHT22;13027;49.358;11.256;2022-08-19T02:56:12;19.70;99.90
25012;DHT22;13027;49.358;11.256;2022-08-19T02:58:38;19.60;99.90
25012;DHT22;13027;49.358;11.256;2022-08-19T03:01:03;19.60;99.90
25012;DHT22;13027;49.358;11.256;2022-08-19T03:03:29;19.60;99.90
25012;DHT22;13027;49.358;11.256;2022-08-19T03:06:05;19.60;99.90
25012;DHT22;13027;49.358;11.256;2022-08-19T03:08:30;19.60;99.90
25012;DHT22;13027;49.358;11.256;2022-08-19T03:10:56;19.60;99.90
25012;DHT22;13027;49.358;11.256;2022-08-19T03:13:21;19.60;99.90
25012;DHT22;13027;49.358;11.256;2022-08-19T03:15:48;19.50;99.90
25012;DHT22;13027;49.358;11.256;2022-08-19T03:18:14;19.50;99.90
25012;DHT22;13027;49.358;11.256;2022-08-19T03:20:42;19.50;99.90
25012;DHT22;13027;49.358;11.256;2022-08-19T03:23:08;19.50;99.90
25012;DHT22;13027;49.358;11.256;2022-08-19T03:25:38;19.60;99.90
25012;DHT22;13027;49.358;11.256;2022-08-19T03:28:04;19.50;99.90
25012;DHT22;13027;49.358;11.256;2022-08-19T03:30:29;19.50;99.90
25012;DHT22;13027;49.358;11.256;2022-08-19T03:32:55;19.60;99.90
25012;DHT22;13027;49.358;11.256;2022-08-19T03:35:20;19.50;99.90
25012;DHT22;13027;49.358;11.256;2022-08-19T03:37:46;19.50;99.90
25012;DHT22;13027;49.358;11.256;2022-08-19T03:40:11;19.50;99.90
25012;DHT22;13027;49.358;11.256;2022-08-19T03:42:37;19.40;99.90
25012;DHT22;13027;49.358;11.256;2022-08-19T03:45:02;19.40;99.90
25012;DHT22;13027;49.358;11.256;2022-08-19T03:47:28;19.50;99.90
25012;DHT22;13027;49.358;11.256;2022-08-19T03:49:53;19.40;99.90
25012;DHT22;13027;49.358;11.256;2022-08-19T03:52:19;19.40;99.90
25012;DHT22;13027;49.358;11.256;2022-08-19T03:54:45;19.40;99.90
25012;DHT22;13027;49.358;11.256;2022-08-19T03:57:10;19.40;99.90
25012;DHT22;13027;49.358;11.256;2022-08-19T03:59:37;19.30;99.90
25012;DHT22;13027;49.358;11.256;2022-08-19T04:02:06;19.30;99.90
25012;DHT22;13027;49.358;11.256;2022-08-19T04:04:34;19.30;99.90
25012;DHT22;13027;49.358;11.256;2022-08-19T04:07:00;19.30;99.90
25012;DHT22;13027;49.358;11.256;2022-08-19T04:09:26;19.30;99.90
25012;DHT22;13027;49.358;11.256;2022-08-19T04:11:53;19.30;99.90
25012;DHT22;13027;49.358;11.256;2022-08-19T04:14:20;19.30;99.90
25012;DHT22;13027;49.358;11.256;2022-08-19T04:16:47;19.40;99.90
25012;DHT22;13027;49.358;11.256;2022-08-19T04:19:13;19.40;99.90
25012;DHT22;13027;49.358;11.256;2022-08-19T04:21:39;19.30;99.90
25012;DHT22;13027;49.358;11.256;2022-08-19T04:24:05;19.30;99.90
25012;DHT22;13027;49.358;11.256;2022-08-19T04:26:32;19.40;99.90
25012;DHT22;13027;49.358;11.256;2022-08-19T04:29:02;19.40;99.90
25012;DHT22;13027;49.358;11.256;2022-08-19T04:31:30;19.30;99.90
25012;DHT22;13027;49.358;11.256;2022-08-19T04:33:56;19.30;99.90
25012;DHT22;13027;49.358;11.256;2022-08-19T04:36:24;19.40;99.90
25012;DHT22;13027;49.358;11.256;2022-08-19T04:38:52;19.40;99.90
25012;DHT22;13027;49.358;11.256;2022-08-19T04:41:18;19.50;99.90
25012;DHT22;13027;49.358;11.256;2022-08-19T04:44:02;19.40;99.90
25012;DHT22;13027;49.358;11.256;2022-08-19T04:46:29;19.50;99.90
25012;DHT22;13027;49.358;11.256;2022-08-19T04:48:56;19.50;99.90
25012;DHT22;13027;49.358;11.256;2022-08-19T04:51:22;19.50;99.90
25012;DHT22;13027;49.358;11.256;2022-08-19T04:53:48;19.50;99.90
25012;DHT22;13027;49.358;11.256;2022-08-19T04:56:14;19.50;99.90
25012;DHT22;13027;49.358;11.256;2022-08-19T04:58:41;19.50;99.90
25012;DHT22;13027;49.358;11.256;2022-08-19T05:01:28;19.40;99.90
25012;DHT22;13027;49.358;11.256;2022-08-19T05:03:55;19.30;99.90
25012;DHT22;13027;49.358;11.256;2022-08-19T05:06:21;19.30;99.90
25012;DHT22;13027;49.358;11.256;2022-08-19T05:08:47;19.40;99.90
25012;DHT22;13027;49.358;11.256;2022-08-19T05:11:20;19.50;99.90
25012;DHT22;13027;49.358;11.256;2022-08-19T05:13:47;19.50;99.90
25012;DHT22;13027;49.358;11.256;2022-08-19T05:16:14;19.60;99.90
25012;DHT22;13027;49.358;11.256;2022-08-19T05:18:39;19.60;99.90
25012;DHT22;13027;49.358;11.256;2022-08-19T05:21:24;19.50;99.90
25012;DHT22;13027;49.358;11.256;2022-08-19T05:24:08;19.40;99.90
25012;DHT22;13027;49.358;11.256;2022-08-19T05:26:35;19.50;99.90
25012;DHT22;13027;49.358;11.256;2022-08-19T05:29:00;19.50;99.90
25012;DHT22;13027;49.358;11.256;2022-08-19T05:31:26;19.50;99.90
25012;DHT22;13027;49.358;11.256;2022-08-19T05:33:51;19.50;99.90
25012;DHT22;13027;49.358;11.256;2022-08-19T05:36:17;19.50;99.90
25012;DHT22;13027;49.358;11.256;2022-08-19T05:38:45;19.40;99.90
25012;DHT22;13027;49.358;11.256;2022-08-19T05:41:11;19.50;99.90
25012;DHT22;13027;49.358;11.256;2022-08-19T05:43:37;19.50;99.90
25012;DHT22;13027;49.358;11.256;2022-08-19T05:46:06;19.40;99.90
25012;DHT22;13027;49.358;11.256;2022-08-19T05:48:32;19.50;99.90
25012;DHT22;13027;49.358;11.256;2022-08-19T05:51:03;19.60;99.90
25012;DHT22;13027;49.358;11.256;2022-08-19T05:53:28;19.70;99.90
25012;DHT22;13027;49.358;11.256;2022-08-19T05:55:54;19.70;99.90
25012;DHT22;13027;49.358;11.256;2022-08-19T05:58:19;19.80;99.90
25012;DHT22;13027;49.358;11.256;2022-08-19T06:00:45;19.90;99.90
25012;DHT22;13027;49.358;11.256;2022-08-19T06:03:11;19.90;99.90
25012;DHT22;13027;49.358;11.256;2022-08-19T06:05:36;19.90;99.90
25012;DHT22;13027;49.358;11.256;2022-08-19T06:08:02;19.80;99.90
25012;DHT22;13027;49.358;11.256;2022-08-19T06:10:28;20.20;99.90
25012;DHT22;13027;49.358;11.256;2022-08-19T06:12:53;19.90;99.90
25012;DHT22;13027;49.358;11.256;2022-08-19T06:15:19;19.90;99.90
25012;DHT22;13027;49.358;11.256;2022-08-19T06:17:47;20.00;99.90
25012;DHT22;13027;49.358;11.256;2022-08-19T06:20:13;19.90;99.90
25012;DHT22;13027;49.358;11.256;2022-08-19T06:22:41;19.90;99.90
25012;DHT22;13027;49.358;11.256;2022-08-19T06:25:06;20.00;99.90
25012;DHT22;13027;49.358;11.256;2022-08-19T06:27:32;20.10;99.90
25012;DHT22;13027;49.358;11.256;2022-08-19T06:29:58;20.20;99.90
25012;DHT22;13027;49.358;11.256;2022-08-19T06:32:24;20.30;99.90
25012;DHT22;13027;49.358;11.256;2022-08-19T06:34:50;20.30;99.90
25012;DHT22;13027;49.358;11.256;2022-08-19T06:37:15;20.50;99.90
25012;DHT22;13027;49.358;11.256;2022-08-19T06:39:42;20.50;99.90
25012;DHT22;13027;49.358;11.256;2022-08-19T06:42:08;20.50;99.90
25012;DHT22;13027;49.358;11.256;2022-08-19T06:44:37;20.50;99.90
25012;DHT22;13027;49.358;11.256;2022-08-19T06:47:04;20.60;99.90
25012;DHT22;13027;49.358;11.256;2022-08-19T06:49:30;20.80;99.90
25012;DHT22;13027;49.358;11.256;2022-08-19T06:51:58;21.00;99.90
25012;DHT22;13027;49.358;11.256;2022-08-19T06:54:24;21.00;99.90
25012;DHT22;13027;49.358;11.256;2022-08-19T06:56:50;21.00;99.90
25012;DHT22;13027;49.358;11.256;2022-08-19T06:59:17;21.00;99.90
25012;DHT22;13027;49.358;11.256;2022-08-19T07:01:44;21.00;99.90
25012;DHT22;13027;49.358;11.256;2022-08-19T07:04:12;20.90;99.90
25012;DHT22;13027;49.358;11.256;2022-08-19T07:06:38;20.80;99.90
25012;DHT22;13027;49.358;11.256;2022-08-19T07:09:04;20.70;99.90
25012;DHT22;13027;49.358;11.256;2022-08-19T07:11:30;20.60;99.90
25012;DHT22;13027;49.358;11.256;2022-08-19T07:13:56;20.40;99.90
25012;DHT22;13027;49.358;11.256;2022-08-19T07:16:21;20.30;99.90
25012;DHT22;13027;49.358;11.256;2022-08-19T07:18:48;20.40;99.90
25012;DHT22;13027;49.358;11.256;2022-08-19T07:21:16;20.50;99.90
25012;DHT22;13027;49.358;11.256;2022-08-19T07:23:43;20.50;99.90
25012;DHT22;13027;49.358;11.256;2022-08-19T07:26:13;20.50;99.90
25012;DHT22;13027;49.358;11.256;2022-08-19T07:28:39;20.60;99.90
25012;DHT22;13027;49.358;11.256;2022-08-19T07:31:10;20.50;99.90
25012;DHT22;13027;49.358;11.256;2022-08-19T07:33:35;20.50;99.90
25012;DHT22;13027;49.358;11.256;2022-08-19T07:36:05;20.50;99.90
25012;DHT22;13027;49.358;11.256;2022-08-19T07:38:31;20.60;99.90
25012;DHT22;13027;49.358;11.256;2022-08-19T07:40:57;20.60;99.90
25012;DHT22;13027;49.358;11.256;2022-08-19T07:43:23;20.50;99.90
25012;DHT22;13027;49.358;11.256;2022-08-19T07:45:51;20.50;99.90
25012;DHT22;13027;49.358;11.256;2022-08-19T07:48:18;20.50;99.90
25012;DHT22;13027;49.358;11.256;2022-08-19T07:50:43;20.30;99.90
25012;DHT22;13027;49.358;11.256;2022-08-19T07:53:09;20.20;99.90
25012;DHT22;13027;49.358;11.256;2022-08-19T07:55:35;20.30;99.90
25012;DHT22;13027;49.358;11.256;2022-08-19T07:58:00;20.20;99.90
25012;DHT22;13027;49.358;11.256;2022-08-19T08:00:26;20.20;99.90
25012;DHT22;13027;49.358;11.256;2022-08-19T08:02:52;20.30;99.90
25012;DHT22;13027;49.358;11.256;2022-08-19T08:05:18;20.30;99.90
25012;DHT22;13027;49.358;11.256;2022-08-19T08:08:02;20.20;99.90
25012;DHT22;13027;49.358;11.256;2022-08-19T08:10:46;20.20;99.90
25012;DHT22;13027;49.358;11.256;2022-08-19T08:13:12;20.40;99.90
25012;DHT22;13027;49.358;11.256;2022-08-19T08:15:37;20.40;99.90
25012;DHT22;13027;49.358;11.256;2022-08-19T08:18:04;20.60;99.90
25012;DHT22;13027;49.358;11.256;2022-08-19T08:20:29;20.60;99.90
25012;DHT22;13027;49.358;11.256;2022-08-19T08:22:55;20.70;99.90
25012;DHT22;13027;49.358;11.256;2022-08-19T08:25:39;20.70;99.90
25012;DHT22;13027;49.358;11.256;2022-08-19T08:28:05;20.80;99.90
25012;DHT22;13027;49.358;11.256;2022-08-19T08:30:30;20.70;99.90
25012;DHT22;13027;49.358;11.256;2022-08-19T08:32:58;20.60;99.90
25012;DHT22;13027;49.358;11.256;2022-08-19T08:35:23;20.60;99.90
25012;DHT22;13027;49.358;11.256;2022-08-19T08:37:51;20.50;99.90
25012;DHT22;13027;49.358;11.256;2022-08-19T08:43:06;20.70;99.90
25012;DHT22;13027;49.358;11.256;2022-08-19T08:45:36;20.70;99.90
25012;DHT22;13027;49.358;11.256;2022-08-19T08:50:45;20.90;99.90
25012;DHT22;13027;49.358;11.256;2022-08-19T08:53:16;20.80;99.90
25012;DHT22;13027;49.358;11.256;2022-08-19T08:55:42;20.80;99.90
25012;DHT22;13027;49.358;11.256;2022-08-19T08:58:18;20.80;99.90
25012;DHT22;13027;49.358;11.256;2022-08-19T09:00:46;20.80;99.90
25012;DHT22;13027;49.358;11.256;2022-08-19T09:03:22;20.80;99.90
25012;DHT22;13027;49.358;11.256;2022-08-19T09:08:27;20.80;99.90
25012;DHT22;13027;49.358;11.256;2022-08-19T09:10:55;20.80;99.90
25012;DHT22;13027;49.358;11.256;2022-08-19T09:18:45;20.80;99.90
25012;DHT22;13027;49.358;11.256;2022-08-19T09:21:13;20.70;99.90
25012;DHT22;13027;49.358;11.256;2022-08-19T09:23:38;20.60;99.90
25012;DHT22;13027;49.358;11.256;2022-08-19T09:26:08;20.70;99.90
25012;DHT22;13027;49.358;11.256;2022-08-19T09:28:35;20.70;99.90
25012;DHT22;13027;49.358;11.256;2022-08-19T09:31:02;20.80;99.90
25012;DHT22;13027;49.358;11.256;2022-08-19T09:33:28;20.80;99.90
25012;DHT22;13027;49.358;11.256;2022-08-19T09:36:06;20.90;99.90
25012;DHT22;13027;49.358;11.256;2022-08-19T09:38:32;21.00;99.90
25012;DHT22;13027;49.358;11.256;2022-08-19T09:41:06;21.00;99.90
25012;DHT22;13027;49.358;11.256;2022-08-19T09:43:32;20.90;99.90
25012;DHT22;13027;49.358;11.256;2022-08-19T09:45:59;21.00;99.90
25012;DHT22;13027;49.358;11.256;2022-08-19T09:48:25;21.00;99.90
25012;DHT22;13027;49.358;11.256;2022-08-19T09:50:51;21.10;99.90
25012;DHT22;13027;49.358;11.256;2022-08-19T09:53:16;21.10;99.90
25012;DHT22;13027;49.358;11.256;2022-08-19T09:55:42;21.10;99.90
25012;DHT22;13027;49.358;11.256;2022-08-19T09:58:08;21.00;99.90
25012;DHT22;13027;49.358;11.256;2022-08-19T10:00:34;20.90;99.90
25012;DHT22;13027;49.358;11.256;2022-08-19T10:03:02;21.00;99.90
25012;DHT22;13027;49.358;11.256;2022-08-19T10:05:27;21.00;99.90
25012;DHT22;13027;49.358;11.256;2022-08-19T10:08:11;21.00;99.90
25012;DHT22;13027;49.358;11.256;2022-08-19T10:10:37;20.90;99.90
25012;DHT22;13027;49.358;11.256;2022-08-19T10:13:02;20.90;99.90
25012;DHT22;13027;49.358;11.256;2022-08-19T10:15:29;20.90;99.90
25012;DHT22;13027;49.358;11.256;2022-08-19T10:17:54;20.90;99.90
25012;DHT22;13027;49.358;11.256;2022-08-19T10:20:20;20.80;99.90
25012;DHT22;13027;49.358;11.256;2022-08-19T10:22:46;20.70;99.90
25012;DHT22;13027;49.358;11.256;2022-08-19T10:25:12;20.60;99.90
25012;DHT22;13027;49.358;11.256;2022-08-19T10:27:41;20.50;99.90
25012;DHT22;13027;49.358;11.256;2022-08-19T10:30:07;20.50;99.90
25012;DHT22;13027;49.358;11.256;2022-08-19T10:32:34;20.40;99.90
25012;DHT22;13027;49.358;11.256;2022-08-19T10:34:59;20.50;99.90
25012;DHT22;13027;49.358;11.256;2022-08-19T10:37:25;20.40;99.90
25012;DHT22;13027;49.358;11.256;2022-08-19T10:39:51;20.40;99.90
25012;DHT22;13027;49.358;11.256;2022-08-19T10:42:17;20.40;99.90
25012;DHT22;13027;49.358;11.256;2022-08-19T10:44:43;20.40;99.90
25012;DHT22;13027;49.358;11.256;2022-08-19T10:47:09;20.50;99.90
25012;DHT22;13027;49.358;11.256;2022-08-19T10:49:35;20.50;99.90
25012;DHT22;13027;49.358;11.256;2022-08-19T10:52:20;20.60;99.90
25012;DHT22;13027;49.358;11.256;2022-08-19T10:55:05;20.70;99.90
25012;DHT22;13027;49.358;11.256;2022-08-19T10:57:49;20.80;99.90
25012;DHT22;13027;49.358;11.256;2022-08-19T11:00:15;20.80;99.90
25012;DHT22;13027;49.358;11.256;2022-08-19T11:02:40;20.90;99.90
25012;DHT22;13027;49.358;11.256;2022-08-19T11:05:07;20.90;99.90
25012;DHT22;13027;49.358;11.256;2022-08-19T11:07:34;20.70;99.90
25012;DHT22;13027;49.358;11.256;2022-08-19T11:10:01;20.90;99.90
25012;DHT22;13027;49.358;11.256;2022-08-19T11:12:28;20.80;99.90
25012;DHT22;13027;49.358;11.256;2022-08-19T11:14:53;20.70;99.90
25012;DHT22;13027;49.358;11.256;2022-08-19T11:17:19;20.70;99.90
25012;DHT22;13027;49.358;11.256;2022-08-19T11:19:45;20.80;99.90
25012;DHT22;13027;49.358;11.256;2022-08-19T11:22:12;20.80;99.90
25012;DHT22;13027;49.358;11.256;2022-08-19T11:24:38;20.70;99.90
25012;DHT22;13027;49.358;11.256;2022-08-19T11:27:06;20.60;99.90
25012;DHT22;13027;49.358;11.256;2022-08-19T11:29:32;20.50;99.90
25012;DHT22;13027;49.358;11.256;2022-08-19T11:31:59;20.50;99.90
25012;DHT22;13027;49.358;11.256;2022-08-19T11:34:27;20.50;99.90
25012;DHT22;13027;49.358;11.256;2022-08-19T11:36:54;20.50;99.90
25012;DHT22;13027;49.358;11.256;2022-08-19T11:39:23;20.60;99.90
25012;DHT22;13027;49.358;11.256;2022-08-19T11:41:48;20.70;99.90
25012;DHT22;13027;49.358;11.256;2022-08-19T11:44:14;20.60;99.90
25012;DHT22;13027;49.358;11.256;2022-08-19T11:46:40;20.50;99.90
25012;DHT22;13027;49.358;11.256;2022-08-19T11:49:06;20.60;99.90
25012;DHT22;13027;49.358;11.256;2022-08-19T11:51:33;20.60;99.90
25012;DHT22;13027;49.358;11.256;2022-08-19T11:53:59;20.50;99.90
25012;DHT22;13027;49.358;11.256;2022-08-19T11:56:25;20.70;99.90
25012;DHT22;13027;49.358;11.256;2022-08-19T11:58:51;20.70;99.90
25012;DHT22;13027;49.358;11.256;2022-08-19T12:01:18;20.60;99.90
25012;DHT22;13027;49.358;11.256;2022-08-19T12:03:45;20.30;99.90
25012;DHT22;13027;49.358;11.256;2022-08-19T12:06:12;20.40;99.90
25012;DHT22;13027;49.358;11.256;2022-08-19T12:08:39;20.30;99.90
25012;DHT22;13027;49.358;11.256;2022-08-19T12:11:04;20.30;99.90
25012;DHT22;13027;49.358;11.256;2022-08-19T12:13:33;20.10;99.90
25012;DHT22;13027;49.358;11.256;2022-08-19T12:15:58;20.20;99.90
25012;DHT22;13027;49.358;11.256;2022-08-19T12:18:24;20.10;99.90
25012;DHT22;13027;49.358;11.256;2022-08-19T12:20:50;20.20;99.90
25012;DHT22;13027;49.358;11.256;2022-08-19T12:23:16;19.90;99.90
25012;DHT22;13027;49.358;11.256;2022-08-19T12:25:46;19.80;99.90
25012;DHT22;13027;49.358;11.256;2022-08-19T12:28:22;19.70;99.90
25012;DHT22;13027;49.358;11.256;2022-08-19T12:30:48;19.70;99.90
25012;DHT22;13027;49.358;11.256;2022-08-19T12:33:14;19.70;99.90
25012;DHT22;13027;49.358;11.256;2022-08-19T12:35:43;19.80;99.90
25012;DHT22;13027;49.358;11.256;2022-08-19T12:38:14;19.90;99.90
25012;DHT22;13027;49.358;11.256;2022-08-19T12:40:40;19.90;99.90
25012;DHT22;13027;49.358;11.256;2022-08-19T12:43:06;19.90;99.90
25012;DHT22;13027;49.358;11.256;2022-08-19T12:45:32;20.00;99.90
25012;DHT22;13027;49.358;11.256;2022-08-19T12:47:58;20.20;99.90
25012;DHT22;13027;49.358;11.256;2022-08-19T12:50:24;20.10;99.90
25012;DHT22;13027;49.358;11.256;2022-08-19T12:52:49;20.20;99.90
25012;DHT22;13027;49.358;11.256;2022-08-19T12:55:15;20.20;99.90
25012;DHT22;13027;49.358;11.256;2022-08-19T12:57:41;20.30;99.90
25012;DHT22;13027;49.358;11.256;2022-08-19T13:00:08;19.60;99.90
25012;DHT22;13027;49.358;11.256;2022-08-19T13:02:44;20.40;99.90
25012;DHT22;13027;49.358;11.256;2022-08-19T13:05:12;20.30;99.90
25012;DHT22;13027;49.358;11.256;2022-08-19T13:07:38;20.40;99.90
25012;DHT22;13027;49.358;11.256;2022-08-19T13:10:07;20.30;99.90
25012;DHT22;13027;49.358;11.256;2022-08-19T13:12:33;20.40;99.90
25012;DHT22;13027;49.358;11.256;2022-08-19T13:14:59;20.40;99.90
25012;DHT22;13027;49.358;11.256;2022-08-19T13:17:24;20.50;99.90
25012;DHT22;13027;49.358;11.256;2022-08-19T13:19:50;20.40;99.90
25012;DHT22;13027;49.358;11.256;2022-08-19T13:22:16;20.40;99.90
25012;DHT22;13027;49.358;11.256;2022-08-19T13:24:41;20.50;99.90
25012;DHT22;13027;49.358;11.256;2022-08-19T13:27:07;20.50;99.90
25012;DHT22;13027;49.358;11.256;2022-08-19T13:29:33;20.40;99.90
25012;DHT22;13027;49.358;11.256;2022-08-19T13:32:17;20.60;99.90
25012;DHT22;13027;49.358;11.256;2022-08-19T13:35:02;20.70;99.90
25012;DHT22;13027;49.358;11.256;2022-08-19T13:37:28;20.60;99.90
25012;DHT22;13027;49.358;11.256;2022-08-19T13:40:13;20.40;99.90
25012;DHT22;13027;49.358;11.256;2022-08-19T13:42:41;20.50;99.90
25012;DHT22;13027;49.358;11.256;2022-08-19T13:45:07;20.60;99.90
25012;DHT22;13027;49.358;11.256;2022-08-19T13:47:34;20.30;99.90
25012;DHT22;13027;49.358;11.256;2022-08-19T13:50:01;20.40;99.90
25012;DHT22;13027;49.358;11.256;2022-08-19T13:52:27;20.60;99.90
25012;DHT22;13027;49.358;11.256;2022-08-19T13:54:53;20.50;99.90
25012;DHT22;13027;49.358;11.256;2022-08-19T13:57:19;20.50;99.90
25012;DHT22;13027;49.358;11.256;2022-08-19T13:59:44;20.50;99.90
25012;DHT22;13027;49.358;11.256;2022-08-19T14:02:10;20.50;99.90
25012;DHT22;13027;49.358;11.256;2022-08-19T14:04:36;20.50;99.90
25012;DHT22;13027;49.358;11.256;2022-08-19T14:07:02;20.30;99.90
25012;DHT22;13027;49.358;11.256;2022-08-19T14:09:28;20.40;99.90
25012;DHT22;13027;49.358;11.256;2022-08-19T14:11:54;20.40;99.90
25012;DHT22;13027;49.358;11.256;2022-08-19T14:14:20;20.40;99.90
25012;DHT22;13027;49.358;11.256;2022-08-19T14:16:46;20.40;99.90
25012;DHT22;13027;49.358;11.256;2022-08-19T14:19:12;20.30;99.90
25012;DHT22;13027;49.358;11.256;2022-08-19T14:21:37;20.20;99.90
25012;DHT22;13027;49.358;11.256;2022-08-19T14:24:04;20.20;99.90
25012;DHT22;13027;49.358;11.256;2022-08-19T14:26:29;20.20;99.90
25012;DHT22;13027;49.358;11.256;2022-08-19T14:28:56;20.20;99.90
25012;DHT22;13027;49.358;11.256;2022-08-19T14:31:22;20.20;99.90
25012;DHT22;13027;49.358;11.256;2022-08-19T14:33:49;20.00;99.90
25012;DHT22;13027;49.358;11.256;2022-08-19T14:36:15;20.00;99.90
25012;DHT22;13027;49.358;11.256;2022-08-19T14:38:41;20.00;99.90
25012;DHT22;13027;49.358;11.256;2022-08-19T14:41:17;20.00;99.90
25012;DHT22;13027;49.358;11.256;2022-08-19T14:43:45;19.90;99.90
25012;DHT22;13027;49.358;11.256;2022-08-19T14:46:12;19.90;99.90
25012;DHT22;13027;49.358;11.256;2022-08-19T14:48:38;19.90;99.90
25012;DHT22;13027;49.358;11.256;2022-08-19T14:51:05;19.90;99.90
25012;DHT22;13027;49.358;11.256;2022-08-19T14:53:31;19.70;99.90
25012;DHT22;13027;49.358;11.256;2022-08-19T14:55:59;19.80;99.90
25012;DHT22;13027;49.358;11.256;2022-08-19T14:58:24;19.60;99.90
25012;DHT22;13027;49.358;11.256;2022-08-19T15:00:50;19.50;99.90
25012;DHT22;13027;49.358;11.256;2022-08-19T15:03:15;19.50;99.90
25012;DHT22;13027;49.358;11.256;2022-08-19T15:05:41;19.40;99.90
25012;DHT22;13027;49.358;11.256;2022-08-19T15:08:06;19.50;99.90
25012;DHT22;13027;49.358;11.256;2022-08-19T15:10:32;19.50;99.90
25012;DHT22;13027;49.358;11.256;2022-08-19T15:12:58;19.50;99.90
25012;DHT22;13027;49.358;11.256;2022-08-19T15:15:24;19.50;99.90
25012;DHT22;13027;49.358;11.256;2022-08-19T15:17:50;19.50;99.90
25012;DHT22;13027;49.358;11.256;2022-08-19T15:20:16;19.40;99.90
25012;DHT22;13027;49.358;11.256;2022-08-19T15:22:43;19.50;99.90
25012;DHT22;13027;49.358;11.256;2022-08-19T15:25:09;19.40;99.90
25012;DHT22;13027;49.358;11.256;2022-08-19T15:27:35;19.40;99.90
25012;DHT22;13027;49.358;11.256;2022-08-19T15:30:01;19.30;99.90